Terminal Aerodrome Forecast
Issued by NWS Wilmington, OH

Current Version | Previous Version | Graphics & Text | Print | Product List | Glossary On
Versions: 1 2 3 4 5 6 7 8 9 10 11 12 13 14 15 16 17 18 19 20 21 22 23 24 25 26 27
000
FTUS41 KILN 251700
TAFCVG
TAF
KCVG 251730Z 2518/2624 23011G20KT P6SM BKN050
     FM252200 VRB05KT P6SM SCT050
     FM260600 14008KT 4SM -SHRA BR OVC040
     FM260800 11009KT 3SM -SHRA BR VCTS OVC015CB
     FM261300 33012G22KT 4SM -SHRA BR OVC010
     FM261800 32011G20KT 5SM BR OVC025
     FM262100 32011G20KT P6SM BKN035=

USA.gov is the U.S. government's official web portal to all federal, state and local government web resources and services.